Latest Weather Observations for Yarrawonga

IDV60801

Issued at 6:02 pm EST Saturday 4 July 2015 (issued every 30 minutes, with the page automatically refreshed every 10 minutes)

About weather observations | Map of weather stations | Latest weather observations for VIC | Other Formats
Station Details ID: 081124 Name: YARRAWONGA Lat: -36.03 Lon: 146.03 Height: 128.9 m
Data from the previous 72 hours. | See also: Recent months at Yarrawonga
Date/Time
EST
Temp
°C
App
Temp
°C
Dew
Point
Rel
Hum
%
Delta-T
°C
Wind Press
QNH
hPa
Press
MSL
hPa
Rain
since 9 am
mm
Dir
 
Spd
km/h
Gust
km/h
Spd
kts
Gust
kts
04/06:00pm 8.1 6.1 4.3 77 1.7 NE 4 6 2 3 1023.5 1023.7 0.0
04/05:30pm 8.1 5.9 5.4 83 1.2 ENE 6 6 3 3 1023.5 1023.7 0.0
04/05:00pm 8.9 7.4 4.9 76 1.8 SE 2 4 1 2 1023.5 1023.7 0.0
04/04:30pm 9.9 8.2 3.9 66 2.7 SE 2 2 1 1 1023.7 1023.9 0.0
04/04:00pm 10.6 8.3 2.7 58 3.4 S 4 6 2 3 1023.6 1023.8 0.0
04/03:30pm 10.9 9.0 3.0 58 3.5 SW 2 6 1 3 1023.6 1023.8 0.0
04/03:00pm 10.6 8.6 2.4 57 3.5 WSW 2 7 1 4 1023.5 1023.7 0.0
04/02:30pm 11.0 8.7 2.6 56 3.6 SSW 4 11 2 6 1023.5 1023.7 0.0
04/02:00pm 10.9 8.6 3.0 58 3.4 WSW 4 9 2 5 1023.7 1023.9 0.0
04/01:30pm 10.6 7.3 2.7 58 3.4 WSW 9 13 5 7 1023.9 1024.1 0.0
04/01:00pm 11.1 8.3 2.9 57 3.6 W 7 13 4 7 1024.1 1024.3 0.0
04/12:30pm 10.9 8.0 2.5 56 3.6 NNW 7 11 4 6 1024.5 1024.7 0.0
04/12:00pm 10.3 7.5 3.1 61 3.1 N 7 11 4 6 1024.9 1025.1 0.0
04/11:30am 10.7 8.7 4.2 64 2.9 NNE 4 7 2 4 1025.5 1025.8 0.0
04/11:00am 10.2 8.2 4.6 68 2.5 NNE 4 6 2 3 1025.9 1026.2 0.0
04/10:30am 9.0 7.4 4.4 73 2.0 NNW 2 4 1 2 1026.2 1026.5 0.0
04/10:00am 6.7 5.0 6.0 95 0.3 ENE 4 4 2 2 1026.3 1026.6 0.0
04/09:30am 5.8 4.4 5.7 99 0.0 NE 2 4 1 2 1026.1 1026.4 0.0
04/09:00am 3.8 1.3 3.7 99 0.0 ENE 6 7 3 4 1025.6 1025.9 0.0
04/08:30am 3.4 1.6 3.3 99 0.0 E 2 4 1 2 1025.5 1025.8 0.0
04/08:00am 3.0 1.5 2.9 99 0.0 CALM 0 0 0 0 1025.6 1025.9 0.0
04/07:30am 3.2 1.3 3.1 99 0.0 E 2 2 1 1 1025.5 1025.8 0.0
04/07:00am 3.1 1.2 3.0 99 0.0 E 2 4 1 2 1025.2 1025.5 0.0
04/06:30am 3.1 1.2 3.0 99 0.0 E 2 4 1 2 1024.8 1025.0 0.0
04/06:00am 3.0 1.5 2.9 99 0.0 CALM 0 0 0 0 1024.6 1024.8 0.0
04/05:30am 3.1 1.6 3.0 99 0.0 CALM 0 0 0 0 1024.7 1024.9 0.0
04/05:00am 3.2 1.0 3.1 99 0.0 ESE 4 6 2 3 1024.6 1024.8 0.0
04/04:30am 3.2 1.0 3.1 99 0.0 ESE 4 6 2 3 1024.7 1024.9 0.0
04/04:00am 3.3 1.8 3.2 99 0.0 CALM 0 0 0 0 1024.7 1024.9 0.0
04/03:30am 3.1 0.8 3.0 99 0.0 NNE 4 4 2 2 1024.5 1024.7 0.0
04/03:00am 3.2 1.7 3.1 99 0.0 CALM 0 0 0 0 1024.9 1025.1 0.0
04/02:30am 3.4 2.0 3.3 99 0.0 CALM 0 0 0 0 1024.9 1025.1 0.0
04/02:00am 3.0 1.5 2.9 99 0.0 CALM 0 0 0 0 1025.0 1025.2 0.0
04/01:30am 3.3 1.8 3.2 99 0.0 CALM 0 0 0 0 1025.2 1025.5 0.0
04/01:00am 3.5 2.1 3.4 99 0.0 CALM 0 0 0 0 1025.8 1026.1 0.0
04/12:30am 3.5 2.1 3.4 99 0.0 CALM 0 0 0 0 1026.1 1026.4 0.0
04/12:00am 3.5 2.1 3.4 99 0.0 CALM 0 2 0 1 1026.0 1026.3 0.0
 
Date/Time
EST
Temp
°C
App
Temp
°C
Dew
Point
Rel
Hum
%
Delta-T
°C
Wind Press
QNH
hPa
Press
MSL
hPa
Rain
since 9 am
mm
Dir
 
Spd
km/h
Gust
km/h
Spd
kts
Gust
kts
03/11:30pm 3.2 0.9 2.9 98 0.1 SW 4 4 2 2 1026.3 1026.6 0.0
03/11:00pm 4.7 3.1 4.4 98 0.1 WSW 2 2 1 1 1026.1 1026.4 0.0
03/10:30pm 4.9 3.3 4.6 98 0.1 SW 2 4 1 2 1026.3 1026.6 0.0
03/10:00pm 5.5 4.4 5.2 98 0.1 CALM 0 0 0 0 1026.4 1026.7 0.0
03/09:30pm 5.8 4.8 5.5 98 0.1 CALM 0 0 0 0 1026.5 1026.8 0.0
03/09:00pm 6.1 5.1 5.8 98 0.1 CALM 0 0 0 0 1026.7 1027.0 0.0
03/08:30pm 6.1 5.1 5.4 95 0.3 CALM 0 0 0 0 1026.7 1027.0 0.0
03/08:00pm 6.3 5.4 6.0 98 0.1 CALM 0 0 0 0 1026.7 1027.0 0.0
03/07:30pm 6.9 6.1 6.5 97 0.2 CALM 0 0 0 0 1026.7 1027.0 0.0
03/07:00pm 7.4 6.4 5.7 89 0.8 CALM 0 0 0 0 1026.6 1026.9 0.0
03/06:30pm 7.7 6.8 6.2 90 0.7 CALM 0 0 0 0 1026.6 1026.9 0.0
03/06:00pm 8.3 7.2 5.2 81 1.4 CALM 0 0 0 0 1026.7 1027.0 0.0
03/05:30pm 8.4 7.3 5.0 79 1.5 CALM 0 0 0 0 1026.7 1027.0 0.0
03/05:00pm 8.9 7.7 4.5 74 1.9 CALM 0 0 0 0 1026.5 1026.8 0.0
03/04:30pm 9.2 7.7 3.2 66 2.6 CALM 0 0 0 0 1026.5 1026.8 0.0
03/04:00pm 9.4 7.9 2.9 64 2.8 CALM 0 2 0 1 1026.6 1026.9 0.0
03/03:30pm 9.4 7.5 2.7 63 2.9 S 2 6 1 3 1026.6 1026.9 0.0
03/03:00pm 10.6 8.5 1.7 54 3.7 SSW 2 6 1 3 1026.5 1026.8 0.0
03/02:30pm 10.7 8.1 3.0 59 3.4 W 6 9 3 5 1026.6 1026.9 0.0
03/02:00pm 10.7 8.6 4.0 63 3.0 WSW 4 7 2 4 1026.5 1026.8 0.0
03/01:30pm 10.3 8.3 4.2 66 2.7 WNW 4 6 2 3 1026.7 1027.0 0.0
03/01:00pm 9.4 7.8 4.4 71 2.2 S 2 6 1 3 1027.0 1027.3 0.0
03/12:30pm 9.7 8.2 5.1 73 2.1 ESE 2 4 1 2 1027.5 1027.8 0.0
03/12:00pm 8.5 7.0 4.9 78 1.6 SSE 2 4 1 2 1028.0 1028.3 0.0
03/11:30am 7.5 5.6 4.8 83 1.2 SSE 4 7 2 4 1028.5 1028.8 0.0
03/11:00am 7.4 5.8 6.3 93 0.5 ESE 4 6 2 3 1028.8 1029.1 0.0
03/10:30am 6.3 5.0 6.2 99 0.0 ENE 2 6 1 3 1028.9 1029.2 0.0
03/10:00am 4.0 1.9 3.9 99 0.0 ENE 4 6 2 3 1028.9 1029.2 0.0
03/09:30am 2.6 0.6 2.5 99 0.0 ESE 2 4 1 2 1029.0 1029.3 0.0
03/09:00am 0.9 -1.3 0.8 99 0.0 S 2 6 1 3 1028.5 1028.8 0.4
03/08:30am 0.1 -3.0 0.0 99 0.0 SSW 6 7 3 4 1028.4 1028.7 0.2
03/08:00am -1.3 -3.5 -1.4 99 0.0 CALM 0 0 0 0 1028.5 1028.8 0.2
03/07:30am -1.9 -4.9 -2.0 99 -0.1 ESE 4 9 2 5 1028.2 1028.5 0.2
03/07:00am -1.8 -4.8 -1.9 99 0.0 WSW 4 7 2 4 1028.0 1028.3 0.2
03/06:30am -0.8 -4.2 -0.9 99 0.0 W 7 9 4 5 1027.9 1028.2 0.2
03/06:00am -1.4 -4.4 -1.5 99 0.0 SSW 4 6 2 3 1027.8 1028.1 0.2
03/05:30am -0.5 -3.7 -0.6 99 0.0 WSW 6 9 3 5 1027.5 1027.8 0.2
03/05:00am 0.8 -2.8 0.7 99 0.0 W 9 11 5 6 1027.4 1027.7 0.2
03/04:30am 1.1 -2.4 1.0 99 0.0 W 9 11 5 6 1027.3 1027.6 0.2
03/04:00am -0.2 -3.4 -0.3 99 0.0 WSW 6 7 3 4 1027.3 1027.6 0.2
03/03:30am -0.3 -4.4 -0.4 99 0.0 WSW 11 13 6 7 1027.5 1027.8 0.2
03/03:00am 0.1 -3.0 0.0 99 0.0 WSW 6 7 3 4 1027.6 1027.9 0.2
03/02:30am 0.3 -3.0 0.2 99 0.0 SSW 7 9 4 5 1027.7 1028.0 0.2
03/02:00am 0.1 -3.6 0.0 99 0.0 SSW 9 11 5 6 1027.8 1028.1 0.2
03/01:30am 0.3 -3.4 0.0 98 0.1 SW 9 11 5 6 1027.9 1028.2 0.2
03/01:00am 1.5 -1.4 1.2 98 0.1 SW 6 6 3 3 1028.0 1028.3 0.2
03/12:30am 2.1 0.0 1.8 98 0.1 SSE 2 4 1 2 1028.0 1028.3 0.2
03/12:00am 0.6 -3.0 0.3 98 0.1 SW 9 13 5 7 1028.0 1028.3 0.2
 
Date/Time
EST
Temp
°C
App
Temp
°C
Dew
Point
Rel
Hum
%
Delta-T
°C
Wind Press
QNH
hPa
Press
MSL
hPa
Rain
since 9 am
mm
Dir
 
Spd
km/h
Gust
km/h
Spd
kts
Gust
kts
02/11:30pm 1.1 -1.9 0.8 98 0.1 SSW 6 7 3 4 1028.1 1028.4 0.2
02/11:00pm 1.9 -0.6 1.6 98 0.1 SE 4 6 2 3 1027.9 1028.2 0.2
02/10:30pm 2.5 0.1 2.2 98 0.1 SSW 4 7 2 4 1027.8 1028.1 0.2
02/10:00pm 2.8 -0.1 2.5 98 0.1 SW 7 11 4 6 1027.9 1028.2 0.2
02/09:30pm 3.3 1.0 2.9 97 0.2 SSW 4 7 2 4 1027.9 1028.2 0.2
02/09:00pm 3.6 0.8 3.0 96 0.2 SW 7 11 4 6 1027.9 1028.2 0.2
02/08:30pm 4.2 1.5 2.4 88 0.7 SW 6 9 3 5 1027.5 1027.8 0.2
02/08:00pm 5.0 0.7 3.3 89 0.7 SW 15 19 8 10 1027.4 1027.7 0.2
02/07:30pm 4.8 0.8 2.7 86 0.9 SW 13 17 7 9 1026.9 1027.2 0.2
02/07:00pm 5.6 1.6 2.8 82 1.2 SW 13 15 7 8 1026.7 1027.0 0.2
02/06:30pm 6.1 2.0 2.0 75 1.7 SW 13 17 7 9 1026.1 1026.4 0.2
02/06:00pm 7.0 1.7 2.1 71 2.0 SW 19 20 10 11 1025.6 1025.9 0.2
02/05:30pm 7.7 2.4 2.0 67 2.4 WSW 19 24 10 13 1025.0 1025.2 0.2
02/05:00pm 9.0 4.8 1.7 60 3.0 SW 13 19 7 10 1024.9 1025.1 0.2
02/04:30pm 10.3 3.2 1.4 54 3.7 SW 28 35 15 19 1024.3 1024.5 0.2
02/04:00pm 10.9 3.4 1.2 51 4.1 SSW 30 37 16 20 1023.8 1024.0 0.2
02/03:30pm 11.6 4.2 1.8 51 4.2 SW 30 41 16 22 1023.7 1023.9 0.2
02/03:00pm 12.2 4.2 1.5 48 4.6 SW 33 44 18 24 1023.5 1023.7 0.2
02/02:30pm 11.9 3.6 2.1 51 4.2 SW 35 46 19 25 1022.8 1023.1 0.2
02/02:00pm 11.6 3.0 2.6 54 3.9 SW 37 54 20 29 1022.3 1022.6 0.2
02/01:30pm 11.1 3.2 4.1 62 3.1 SW 35 57 19 31 1022.2 1022.5 0.2
02/01:00pm 9.3 2.6 8.2 93 0.5 SW 33 44 18 24 1022.4 1022.7 0.2
02/12:42pm 11.0 2.3 6.0 71 2.3 SW 41 65 22 35 1022.3 1022.6 0.0
02/12:30pm 12.7 5.3 5.1 60 3.5 WSW 33 46 18 25 1021.9 1022.2 0.0
02/12:00pm 12.2 4.9 5.6 64 3.1 WSW 33 44 18 24 1022.0 1022.3 0.0
02/11:30am 11.9 4.8 6.6 70 2.5 WSW 33 43 18 23 1022.3 1022.6 0.0
02/11:00am 11.5 5.9 7.2 75 2.1 WSW 26 37 14 20 1022.5 1022.8 0.0
02/10:30am 10.6 6.1 8.4 86 1.1 W 22 32 12 17 1022.6 1022.9 0.0
02/10:00am 9.2 3.6 7.3 88 0.9 W 26 35 14 19 1022.7 1023.0 0.0
02/09:30am 8.5 4.0 7.0 90 0.7 W 20 30 11 16 1022.5 1022.8 0.0
02/09:00am 7.9 3.2 6.2 89 0.8 W 20 30 11 16 1022.4 1022.7 0.0
02/08:30am 7.9 3.8 6.0 88 0.9 W 17 24 9 13 1022.3 1022.6 0.0
02/08:00am 7.6 4.2 5.7 88 0.9 WNW 13 20 7 11 1022.0 1022.3 0.0
02/07:30am 8.0 4.3 4.4 78 1.6 NW 13 19 7 10 1021.8 1022.1 0.0
02/07:00am 7.9 4.2 4.3 78 1.6 NW 13 19 7 10 1021.8 1022.1 0.0
02/06:30am 7.8 4.5 4.4 79 1.5 NW 11 17 6 9 1021.8 1022.1 0.0
02/06:00am 8.1 4.3 4.1 76 1.7 NW 13 19 7 10 1021.8 1022.1 0.0
02/05:30am 8.1 4.0 4.1 76 1.8 NW 15 19 8 10 1021.8 1022.1 0.0
02/05:00am 8.2 4.0 4.0 75 1.8 NW 15 19 8 10 1021.9 1022.2 0.0
02/04:30am 8.6 4.4 3.6 71 2.2 NW 15 22 8 12 1022.2 1022.5 0.0
02/04:00am 8.6 4.8 3.8 72 2.1 NW 13 19 7 10 1022.5 1022.8 0.0
02/03:30am 8.2 4.4 4.0 75 1.8 NW 13 19 7 10 1023.1 1023.3 0.0
02/03:00am 7.9 5.0 4.7 80 1.4 NNW 9 13 5 7 1023.4 1023.6 0.0
02/02:30am 8.0 5.1 4.8 80 1.4 NW 9 15 5 8 1023.6 1023.8 0.0
02/02:00am 8.0 4.3 4.4 78 1.6 NW 13 19 7 10 1024.0 1024.2 0.0
02/01:30am 7.8 5.0 5.1 83 1.2 NNW 9 9 5 5 1024.1 1024.3 0.0
02/01:00am 7.9 5.0 4.5 79 1.5 NW 9 13 5 7 1024.5 1024.7 0.0
02/12:30am 7.8 5.5 4.6 80 1.4 NW 6 9 3 5 1024.9 1025.1 0.0
02/12:00am 7.8 4.9 4.6 80 1.4 NW 9 15 5 8 1025.1 1025.4 0.0
 
Date/Time
EST
Temp
°C
App
Temp
°C
Dew
Point
Rel
Hum
%
Delta-T
°C
Wind Press
QNH
hPa
Press
MSL
hPa
Rain
since 9 am
mm
Dir
 
Spd
km/h
Gust
km/h
Spd
kts
Gust
kts
01/11:30pm 7.3 5.2 6.6 95 0.3 NNW 7 11 4 6 1025.1 1025.4 0.0
01/11:00pm 6.7 4.8 6.6 99 0.0 NNW 6 7 3 4 1025.2 1025.5 0.0
01/10:30pm 5.6 3.8 5.5 99 0.0 NNW 4 6 2 3 1025.2 1025.5 0.0
01/10:00pm 5.9 3.8 5.8 99 0.0 N 6 9 3 5 1025.4 1025.7 0.0
01/09:30pm 6.2 4.2 6.1 99 0.0 N 6 6 3 3 1025.5 1025.8 0.0
01/09:00pm 6.1 4.0 6.0 99 0.0 N 6 7 3 4 1025.6 1025.9 0.0
01/08:30pm 6.6 5.0 6.3 98 0.1 NNE 4 6 2 3 1025.7 1026.0 0.0
01/08:00pm 7.5 6.1 7.2 98 0.1 NNE 4 6 2 3 1026.1 1026.4 0.0
01/07:30pm 8.2 7.7 7.9 98 0.1 CALM 0 0 0 0 1026.2 1026.5 0.0
01/07:00pm 8.2 6.6 7.9 98 0.1 NE 6 7 3 4 1025.9 1026.2 0.0
01/06:30pm 8.1 6.8 7.8 98 0.1 E 4 6 2 3 1025.5 1025.8 0.0

Other Formats:

Comma delimited format used in spreadsheet applications
http://www.bom.gov.au/fwo/IDV60801/IDV60801.94862.axf

JavaScript Object Notation format (JSON) in row-major order
http://www.bom.gov.au/fwo/IDV60801/IDV60801.94862.json